createdAt,value
2018-10-16T00:01:13.620Z,22.60
2018-10-16T00:03:42.150Z,22.60
2018-10-16T00:06:10.631Z,22.50
2018-10-16T00:08:39.977Z,22.40
2018-10-16T00:11:08.518Z,22.40
2018-10-16T00:13:37.190Z,22.30
2018-10-16T00:16:05.702Z,22.30
2018-10-16T00:18:34.174Z,22.20
2018-10-16T00:21:02.697Z,22.20
2018-10-16T00:23:31.198Z,22.20
2018-10-16T00:25:59.653Z,22.10
2018-10-16T00:28:28.237Z,22.10
2018-10-16T00:30:56.721Z,22.00
2018-10-16T00:33:25.463Z,22.00
2018-10-16T00:35:54.041Z,22.00
2018-10-16T00:38:22.491Z,21.90
2018-10-16T00:40:51.009Z,21.90
2018-10-16T00:43:19.476Z,21.90
2018-10-16T00:45:48.068Z,21.80
2018-10-16T00:48:16.640Z,21.80
2018-10-16T00:50:45.195Z,21.80
2018-10-16T00:53:13.688Z,21.80
2018-10-16T00:55:42.222Z,21.80
2018-10-16T00:58:10.917Z,21.70
2018-10-16T01:00:39.851Z,21.70
2018-10-16T01:03:08.331Z,21.70
2018-10-16T01:05:37.052Z,21.70
2018-10-16T01:08:05.885Z,21.70
2018-10-16T01:10:34.381Z,21.60
2018-10-16T01:13:03.285Z,21.60
2018-10-16T01:15:31.989Z,21.60
2018-10-16T01:18:00.499Z,21.60
2018-10-16T01:20:29.453Z,21.50
2018-10-16T01:22:58.132Z,21.50
2018-10-16T01:25:26.834Z,21.50
2018-10-16T01:27:55.350Z,21.40
2018-10-16T01:30:23.955Z,21.40
2018-10-16T01:32:52.561Z,21.40
2018-10-16T01:35:21.172Z,21.40
2018-10-16T01:37:49.641Z,21.40
2018-10-16T01:40:18.189Z,21.40
2018-10-16T01:42:46.702Z,21.40
2018-10-16T01:45:15.298Z,21.40
2018-10-16T01:47:43.881Z,21.40
2018-10-16T01:50:12.638Z,21.30
2018-10-16T01:52:41.579Z,21.30
2018-10-16T01:55:10.094Z,21.30
2018-10-16T01:57:39.066Z,21.30
2018-10-16T02:00:09.210Z,21.30
2018-10-16T02:02:38.063Z,21.30
2018-10-16T02:05:06.979Z,21.30
2018-10-16T02:07:35.618Z,21.30
2018-10-16T02:10:04.181Z,21.30
2018-10-16T02:12:32.768Z,21.30
2018-10-16T02:15:01.365Z,21.30
2018-10-16T02:17:29.986Z,21.30
2018-10-16T02:19:58.535Z,21.20
2018-10-16T02:22:27.424Z,21.20
2018-10-16T02:24:55.986Z,21.20
2018-10-16T02:27:24.559Z,21.20
2018-10-16T02:29:53.038Z,21.20
2018-10-16T02:32:21.531Z,21.20
2018-10-16T02:34:50.367Z,21.20
2018-10-16T02:37:18.891Z,21.20
2018-10-16T02:39:47.685Z,21.20
2018-10-16T02:42:16.310Z,21.20
2018-10-16T02:44:45.001Z,21.20
2018-10-16T02:47:14.018Z,21.20
2018-10-16T02:49:42.619Z,21.20
2018-10-16T02:52:11.221Z,21.20
2018-10-16T02:54:40.067Z,21.20
2018-10-16T02:57:08.664Z,21.10
2018-10-16T02:59:37.456Z,21.10
2018-10-16T03:02:06.538Z,21.10
2018-10-16T03:04:35.109Z,21.20
2018-10-16T03:07:03.924Z,21.10
2018-10-16T03:09:32.417Z,21.10
2018-10-16T03:12:01.047Z,21.10
2018-10-16T03:14:29.557Z,21.10
2018-10-16T03:16:58.126Z,21.10
2018-10-16T03:19:26.609Z,21.10
2018-10-16T03:21:55.138Z,21.10
2018-10-16T03:24:23.619Z,21.10
2018-10-16T03:26:52.198Z,21.10
2018-10-16T03:29:20.739Z,21.10
2018-10-16T03:31:49.348Z,21.10
2018-10-16T03:34:17.856Z,21.10
2018-10-16T03:36:46.445Z,21.10
2018-10-16T03:39:15.132Z,21.10
2018-10-16T03:41:43.833Z,21.10
2018-10-16T03:44:13.587Z,21.10
2018-10-16T03:46:42.190Z,21.00
2018-10-16T03:49:11.806Z,21.10
2018-10-16T03:51:41.185Z,21.00
2018-10-16T03:54:10.462Z,21.10
2018-10-16T03:56:39.537Z,21.00
2018-10-16T03:59:08.123Z,21.00
2018-10-16T04:01:36.806Z,21.10
2018-10-16T04:04:05.596Z,21.10
2018-10-16T04:06:34.096Z,21.10
2018-10-16T04:09:02.733Z,21.00
2018-10-16T04:11:31.428Z,21.10
2018-10-16T04:14:00.095Z,21.10
2018-10-16T04:16:28.734Z,21.10
2018-10-16T04:19:29.889Z,21.00
2018-10-16T04:22:00.565Z,21.00
2018-10-16T04:24:30.720Z,21.00
2018-10-16T04:27:01.341Z,21.00
2018-10-16T04:29:31.469Z,21.00
2018-10-16T04:32:02.052Z,21.00
2018-10-16T04:34:32.002Z,21.00
2018-10-16T04:37:02.427Z,21.00
2018-10-16T04:39:34.035Z,21.00
2018-10-16T04:42:05.852Z,21.00
2018-10-16T04:44:36.386Z,21.00
2018-10-16T04:47:06.476Z,21.00
2018-10-16T04:49:34.989Z,21.00
2018-10-16T04:52:03.794Z,21.00
2018-10-16T04:54:32.964Z,21.00
2018-10-16T04:57:01.602Z,21.00
2018-10-16T04:59:30.122Z,21.00
2018-10-16T05:01:58.576Z,21.00
2018-10-16T05:04:27.094Z,21.00
2018-10-16T05:06:55.607Z,21.00
2018-10-16T05:09:24.440Z,21.00
2018-10-16T05:11:54.508Z,21.00
2018-10-16T05:14:23.190Z,21.00
2018-10-16T05:16:51.834Z,21.00
2018-10-16T05:19:21.352Z,21.00
2018-10-16T05:21:49.812Z,21.00
2018-10-16T05:24:18.443Z,21.00
2018-10-16T05:26:46.954Z,21.00
2018-10-16T05:29:15.718Z,21.00
2018-10-16T05:31:44.534Z,21.00
2018-10-16T05:34:13.050Z,21.00
2018-10-16T05:36:41.637Z,21.00
2018-10-16T05:39:12.405Z,21.00
2018-10-16T05:41:40.971Z,21.00
2018-10-16T05:44:09.796Z,20.90
2018-10-16T05:46:38.514Z,21.00
2018-10-16T05:49:07.338Z,21.00
2018-10-16T05:51:35.835Z,21.00
2018-10-16T05:54:04.719Z,21.00
2018-10-16T05:56:33.193Z,20.90
2018-10-16T05:59:01.684Z,21.00
2018-10-16T06:01:30.108Z,21.00
2018-10-16T06:03:58.848Z,21.10
2018-10-16T06:06:27.581Z,21.20
2018-10-16T06:08:56.639Z,21.30
2018-10-16T06:11:25.702Z,21.40
2018-10-16T06:13:54.175Z,21.50
2018-10-16T06:16:22.662Z,21.70
2018-10-16T06:18:51.545Z,21.80
2018-10-16T06:21:20.341Z,21.90
2018-10-16T06:23:48.758Z,22.00
2018-10-16T06:26:17.220Z,22.00
2018-10-16T06:28:46.047Z,22.10
2018-10-16T06:31:14.534Z,22.20
2018-10-16T06:33:43.060Z,22.30
2018-10-16T06:36:11.582Z,22.30
2018-10-16T06:38:40.629Z,22.30
2018-10-16T06:41:09.262Z,22.40
2018-10-16T06:43:38.465Z,22.40
2018-10-16T06:46:07.987Z,22.40
2018-10-16T06:48:38.220Z,22.40
2018-10-16T06:51:06.710Z,22.40
2018-10-16T06:53:35.226Z,22.50
2018-10-16T06:56:03.810Z,22.60
2018-10-16T06:58:32.282Z,22.60
2018-10-16T07:01:00.749Z,22.70
2018-10-16T07:03:29.365Z,22.60
2018-10-16T07:05:57.837Z,22.60
2018-10-16T07:08:26.339Z,22.70
2018-10-16T07:10:54.894Z,22.70
2018-10-16T07:13:23.335Z,22.70
2018-10-16T07:15:51.754Z,22.70
2018-10-16T07:18:20.430Z,22.70
2018-10-16T07:20:48.936Z,22.80
2018-10-16T07:23:17.431Z,22.80
2018-10-16T07:25:45.889Z,22.80
2018-10-16T07:28:14.848Z,22.90
2018-10-16T07:30:43.360Z,22.90
2018-10-16T07:33:11.902Z,23.00
2018-10-16T07:35:40.607Z,22.90
2018-10-16T07:38:09.275Z,22.90
2018-10-16T07:40:38.905Z,22.90
2018-10-16T07:43:07.404Z,22.80
2018-10-16T07:45:36.131Z,22.80
2018-10-16T07:48:05.011Z,22.80
2018-10-16T07:50:33.613Z,22.80
2018-10-16T07:53:02.170Z,22.90
2018-10-16T07:55:30.665Z,22.90
2018-10-16T07:57:59.138Z,23.00
2018-10-16T08:00:27.588Z,22.90
2018-10-16T08:02:56.176Z,22.90
2018-10-16T08:05:24.691Z,22.90
2018-10-16T08:07:53.273Z,23.00
2018-10-16T08:10:22.049Z,23.00
2018-10-16T08:12:50.612Z,23.00
2018-10-16T08:15:19.432Z,23.00
2018-10-16T08:17:48.007Z,22.90
2018-10-16T08:20:16.510Z,22.90
2018-10-16T08:22:44.972Z,22.90
2018-10-16T08:25:13.482Z,22.90
2018-10-16T08:27:41.970Z,23.00
2018-10-16T08:30:10.765Z,23.00
2018-10-16T08:32:39.477Z,23.10
2018-10-16T08:35:07.930Z,23.10
2018-10-16T08:39:53.059Z,23.10
2018-10-16T08:43:00.829Z,23.10
2018-10-16T08:45:40.630Z,23.10
2018-10-16T08:48:20.586Z,23.10
2018-10-16T08:51:00.599Z,23.00
2018-10-16T08:53:29.223Z,23.00
2018-10-16T08:55:57.782Z,23.00
2018-10-16T08:58:28.199Z,23.00
2018-10-16T09:00:56.721Z,23.00
2018-10-16T09:03:25.289Z,23.00
2018-10-16T09:05:54.202Z,23.00
2018-10-16T09:08:22.932Z,23.00
2018-10-16T09:10:51.513Z,22.90
2018-10-16T09:13:20.014Z,23.00
2018-10-16T09:15:48.536Z,23.00
2018-10-16T09:18:17.077Z,22.90
2018-10-16T09:20:45.498Z,22.90
2018-10-16T09:23:14.729Z,23.00
2018-10-16T09:25:44.026Z,23.00
2018-10-16T09:28:12.818Z,23.10
2018-10-16T09:30:41.294Z,23.10
2018-10-16T09:33:09.765Z,23.20
2018-10-16T09:35:38.443Z,23.20
2018-10-16T09:38:06.963Z,23.30
2018-10-16T09:40:35.666Z,23.30
2018-10-16T09:43:04.138Z,23.40
2018-10-16T09:45:32.752Z,23.50
2018-10-16T09:48:01.351Z,23.60
2018-10-16T09:50:29.926Z,23.60
2018-10-16T09:52:58.411Z,23.70
2018-10-16T09:55:26.901Z,23.80
2018-10-16T09:57:55.475Z,23.90
2018-10-16T10:00:29.354Z,24.00
2018-10-16T10:02:57.830Z,24.00
2018-10-16T10:05:26.359Z,24.10
2018-10-16T10:07:54.842Z,24.10
2018-10-16T10:10:23.318Z,24.20
2018-10-16T10:12:51.785Z,24.20
2018-10-16T10:15:20.485Z,24.30
2018-10-16T10:17:49.065Z,24.30
2018-10-16T10:20:17.696Z,24.40
2018-10-16T10:22:46.310Z,24.50
2018-10-16T10:25:14.834Z,24.50
2018-10-16T10:27:43.275Z,24.60
2018-10-16T10:30:12.475Z,24.70
2018-10-16T10:32:41.255Z,24.70
2018-10-16T10:35:11.505Z,24.70
2018-10-16T10:37:40.125Z,24.80
2018-10-16T10:40:08.757Z,24.80
2018-10-16T10:42:37.302Z,24.80
2018-10-16T10:45:07.555Z,24.80
2018-10-16T10:47:36.389Z,24.80
2018-10-16T10:50:06.611Z,24.90
2018-10-16T10:52:35.526Z,24.90
2018-10-16T10:55:04.017Z,24.90
2018-10-16T10:57:32.554Z,24.90
2018-10-16T11:00:01.067Z,24.90
2018-10-16T11:02:29.681Z,24.90
2018-10-16T11:04:58.368Z,25.00
2018-10-16T11:07:27.338Z,25.00
2018-10-16T11:09:56.678Z,25.00
2018-10-16T11:12:25.251Z,25.00
2018-10-16T11:14:53.799Z,25.10
2018-10-16T11:17:22.504Z,25.10
2018-10-16T11:19:51.402Z,25.10
2018-10-16T11:22:20.119Z,25.10
2018-10-16T11:24:48.709Z,25.00
2018-10-16T11:27:17.291Z,25.00
2018-10-16T11:29:45.842Z,25.00
2018-10-16T11:32:14.318Z,24.90
2018-10-16T11:37:34.096Z,24.90
2018-10-16T11:40:02.543Z,24.90
2018-10-16T11:42:31.086Z,24.80
2018-10-16T11:44:59.880Z,24.70
2018-10-16T11:47:28.409Z,24.70
2018-10-16T11:49:57.195Z,24.70
2018-10-16T11:52:25.813Z,24.60
2018-10-16T11:54:54.753Z,24.60
2018-10-16T11:57:23.220Z,24.50
2018-10-16T11:59:52.062Z,24.50
2018-10-16T12:02:20.687Z,24.50
2018-10-16T12:04:49.170Z,24.40
2018-10-16T12:07:17.893Z,24.40
2018-10-16T12:09:46.305Z,24.40
2018-10-16T12:12:14.842Z,24.30
2018-10-16T12:14:43.498Z,24.30
2018-10-16T12:17:17.838Z,24.30
2018-10-16T12:19:56.045Z,24.20
2018-10-16T12:22:24.706Z,24.20
2018-10-16T12:24:53.520Z,24.10
2018-10-16T12:27:22.036Z,24.10
2018-10-16T12:29:50.702Z,24.00
2018-10-16T12:32:19.404Z,23.90
2018-10-16T12:34:47.931Z,23.90
2018-10-16T12:37:16.555Z,23.90
2018-10-16T12:39:45.185Z,23.90
2018-10-16T12:42:14.015Z,23.90
2018-10-16T12:44:42.679Z,23.90
2018-10-16T12:47:11.399Z,23.90
2018-10-16T12:49:40.021Z,23.90
2018-10-16T12:52:08.490Z,23.90
2018-10-16T12:54:37.033Z,23.90
2018-10-16T12:57:05.591Z,23.80
2018-10-16T12:59:35.622Z,23.80
2018-10-16T13:02:04.351Z,23.80
2018-10-16T13:04:32.801Z,23.70
2018-10-16T13:07:09.580Z,23.60
2018-10-16T13:09:38.534Z,23.60
2018-10-16T13:12:06.966Z,23.50
2018-10-16T13:14:35.433Z,23.40
2018-10-16T13:17:04.423Z,23.40
2018-10-16T13:19:33.134Z,23.30
2018-10-16T13:22:01.678Z,23.30
2018-10-16T13:24:30.242Z,23.20
2018-10-16T13:26:58.702Z,23.20
2018-10-16T13:29:27.329Z,23.20
2018-10-16T13:31:56.038Z,23.20
2018-10-16T13:34:24.602Z,23.20
2018-10-16T13:36:53.530Z,23.20
2018-10-16T13:39:22.321Z,23.20
2018-10-16T13:41:51.025Z,23.20
2018-10-16T13:44:19.739Z,23.10
2018-10-16T13:46:48.267Z,23.10
2018-10-16T13:49:16.933Z,23.10
2018-10-16T13:51:45.501Z,23.00
2018-10-16T13:54:14.181Z,23.00
2018-10-16T13:56:42.654Z,23.00
2018-10-16T13:59:11.218Z,22.90
2018-10-16T14:01:39.953Z,22.90
2018-10-16T14:04:08.745Z,22.90
2018-10-16T14:06:37.305Z,22.80
2018-10-16T14:09:07.931Z,22.80
2018-10-16T14:11:36.598Z,22.70
2018-10-16T14:14:05.311Z,22.70
2018-10-16T14:17:40.375Z,22.70
2018-10-16T14:20:09.718Z,22.70
2018-10-16T14:22:39.628Z,22.60
2018-10-16T14:25:09.677Z,22.60
2018-10-16T14:27:38.710Z,22.60
2018-10-16T14:30:08.138Z,22.50
2018-10-16T14:32:36.759Z,22.50
2018-10-16T14:35:06.153Z,22.50
2018-10-16T14:37:34.669Z,22.50
2018-10-16T14:40:03.185Z,22.50
2018-10-16T14:42:31.771Z,22.40
2018-10-16T14:45:00.353Z,22.40
2018-10-16T14:47:28.920Z,22.40
2018-10-16T14:49:57.808Z,22.40
2018-10-16T14:52:26.262Z,22.40
2018-10-16T14:54:54.742Z,22.30
2018-10-16T14:57:23.171Z,22.30
2018-10-16T14:59:52.370Z,22.30
2018-10-16T15:02:20.984Z,22.30
2018-10-16T15:04:49.686Z,22.30
2018-10-16T15:07:20.304Z,22.30
2018-10-16T15:09:49.828Z,22.20
2018-10-16T15:12:24.327Z,22.20
2018-10-16T15:14:53.409Z,22.20
2018-10-16T15:17:21.914Z,22.20
2018-10-16T15:19:50.507Z,22.20
2018-10-16T15:22:19.150Z,22.20
2018-10-16T15:24:47.920Z,22.20
2018-10-16T15:27:16.843Z,22.20
2018-10-16T15:29:45.499Z,22.10
2018-10-16T15:32:14.732Z,22.10
2018-10-16T15:34:43.444Z,22.10
2018-10-16T15:37:13.397Z,22.10
2018-10-16T15:39:42.237Z,22.10
2018-10-16T15:42:10.875Z,22.10
2018-10-16T15:44:39.980Z,22.10
2018-10-16T15:47:09.446Z,22.10
2018-10-16T15:49:38.175Z,22.10
2018-10-16T15:52:07.712Z,22.10
2018-10-16T15:54:36.372Z,22.10
2018-10-16T15:57:04.926Z,22.00
2018-10-16T15:59:33.529Z,22.00
2018-10-16T16:02:02.428Z,22.00
2018-10-16T16:04:31.164Z,22.00
2018-10-16T16:07:00.077Z,22.10
2018-10-16T16:09:28.950Z,22.00
2018-10-16T16:11:57.480Z,22.00
2018-10-16T16:14:26.489Z,22.00
2018-10-16T16:16:55.162Z,22.00
2018-10-16T16:19:23.869Z,22.00
2018-10-16T16:21:52.377Z,22.00
2018-10-16T16:24:20.858Z,22.00
2018-10-16T16:26:49.331Z,22.00
2018-10-16T16:29:17.933Z,22.00
2018-10-16T16:31:46.415Z,22.00
2018-10-16T16:34:15.167Z,22.00
2018-10-16T16:36:43.729Z,22.00
2018-10-16T16:39:13.780Z,22.00
2018-10-16T16:41:42.570Z,22.00
2018-10-16T16:44:11.355Z,22.00
2018-10-16T16:46:40.457Z,22.00
2018-10-16T16:49:08.953Z,22.00
2018-10-16T16:51:37.444Z,21.90
2018-10-16T16:54:06.363Z,21.90
2018-10-16T16:56:34.899Z,21.90
2018-10-16T16:59:03.375Z,22.00
2018-10-16T17:01:32.027Z,22.00
2018-10-16T17:04:00.652Z,22.00
2018-10-16T17:06:29.149Z,22.00
2018-10-16T17:08:57.589Z,22.00
2018-10-16T17:11:26.562Z,22.00
2018-10-16T17:13:55.338Z,22.00
2018-10-16T17:16:25.287Z,21.90
2018-10-16T17:18:54.126Z,21.90
2018-10-16T17:21:23.234Z,21.90
2018-10-16T17:23:52.585Z,21.90
2018-10-16T17:26:21.577Z,21.90
2018-10-16T17:28:50.988Z,21.90
2018-10-16T17:31:19.939Z,21.90
2018-10-16T17:33:48.782Z,21.90
2018-10-16T17:36:18.117Z,21.90
2018-10-16T17:38:46.797Z,21.80
2018-10-16T17:41:15.286Z,21.80
2018-10-16T17:43:44.043Z,21.80
2018-10-16T17:46:12.616Z,21.80
2018-10-16T17:48:41.143Z,21.80
2018-10-16T17:51:09.565Z,21.80
2018-10-16T17:53:38.958Z,21.80
2018-10-16T17:56:08.280Z,21.80
2018-10-16T17:58:37.708Z,21.80
2018-10-16T18:01:06.770Z,21.80
2018-10-16T18:03:35.342Z,21.80
2018-10-16T18:06:04.412Z,21.70
2018-10-16T18:08:34.101Z,21.70
2018-10-16T18:11:02.641Z,21.70
2018-10-16T18:13:32.389Z,21.70
2018-10-16T18:16:02.488Z,21.70
2018-10-16T18:18:31.394Z,21.70
2018-10-16T18:21:01.141Z,21.70
2018-10-16T18:23:29.641Z,21.80
2018-10-16T18:25:58.113Z,21.70
2018-10-16T18:28:26.637Z,21.70
2018-10-16T18:30:55.097Z,21.70
2018-10-16T18:33:23.673Z,21.70
2018-10-16T18:35:52.180Z,21.70
2018-10-16T18:38:20.667Z,21.70
2018-10-16T18:40:49.397Z,21.70
2018-10-16T18:43:17.799Z,21.70
2018-10-16T18:45:46.260Z,21.70
2018-10-16T18:48:14.717Z,21.70
2018-10-16T18:50:43.374Z,21.70
2018-10-16T18:53:12.152Z,21.70
2018-10-16T18:55:41.231Z,21.70
2018-10-16T18:58:09.741Z,21.70
2018-10-16T19:00:38.371Z,21.70
2018-10-16T19:03:07.431Z,21.60
2018-10-16T19:05:35.910Z,21.70
2018-10-16T19:08:04.494Z,21.70
2018-10-16T19:10:32.960Z,21.70
2018-10-16T19:13:02.346Z,21.60
2018-10-16T19:15:31.138Z,21.60
2018-10-16T19:17:59.662Z,21.70
2018-10-16T19:20:28.375Z,21.60
2018-10-16T19:22:57.705Z,21.60
2018-10-16T19:25:26.365Z,21.60
2018-10-16T19:27:55.012Z,21.60
2018-10-16T19:30:23.818Z,21.60
2018-10-16T19:32:52.393Z,21.60
2018-10-16T19:35:20.981Z,21.60
2018-10-16T19:37:49.520Z,21.60
2018-10-16T19:40:18.062Z,21.60
2018-10-16T19:42:46.512Z,21.60
2018-10-16T19:45:15.578Z,21.60
2018-10-16T19:47:44.299Z,21.60
2018-10-16T19:50:12.794Z,21.60
2018-10-16T19:52:41.225Z,21.60
2018-10-16T19:55:09.716Z,21.60
2018-10-16T19:57:38.630Z,21.60
2018-10-16T20:00:07.957Z,21.60
2018-10-16T20:02:36.465Z,21.60
2018-10-16T20:05:05.218Z,21.60
2018-10-16T20:07:33.774Z,21.60
2018-10-16T20:10:02.317Z,21.60
2018-10-16T20:12:33.350Z,21.60
2018-10-16T20:15:02.076Z,21.60
2018-10-16T20:17:31.017Z,21.60
2018-10-16T20:20:00.359Z,21.60
2018-10-16T20:22:29.440Z,21.60
2018-10-16T20:24:58.059Z,21.60
2018-10-16T20:27:28.017Z,21.60
2018-10-16T20:29:56.834Z,21.60
2018-10-16T20:32:25.358Z,21.60
2018-10-16T20:34:54.509Z,21.60
2018-10-16T20:37:22.929Z,21.60
2018-10-16T20:39:52.733Z,21.60
2018-10-16T20:42:22.320Z,21.60
2018-10-16T20:44:52.602Z,21.60
2018-10-16T20:47:23.371Z,21.60
2018-10-16T20:49:52.668Z,21.70
2018-10-16T20:52:22.421Z,21.60
2018-10-16T20:54:51.647Z,21.60
2018-10-16T20:57:21.784Z,21.60
2018-10-16T20:59:51.270Z,21.60
2018-10-16T21:02:21.016Z,21.60
2018-10-16T21:04:49.643Z,21.60
2018-10-16T21:07:20.407Z,21.60
2018-10-16T21:09:49.739Z,21.60
2018-10-16T21:12:18.337Z,21.60
2018-10-16T21:14:46.834Z,21.60
2018-10-16T21:17:15.762Z,21.60
2018-10-16T21:19:44.663Z,21.60
2018-10-16T21:22:13.590Z,21.60
2018-10-16T21:24:43.487Z,21.60
2018-10-16T21:27:13.691Z,21.60
2018-10-16T21:29:42.132Z,21.60
2018-10-16T21:32:10.731Z,21.60
2018-10-16T21:34:39.693Z,21.60
2018-10-16T21:37:08.365Z,21.60
2018-10-16T21:39:36.813Z,21.60
2018-10-16T21:42:06.343Z,21.60
2018-10-16T21:44:34.950Z,21.60
2018-10-16T21:47:05.278Z,21.60
2018-10-16T21:49:34.521Z,21.60
2018-10-16T21:52:02.945Z,21.60
2018-10-16T21:54:31.341Z,21.60
2018-10-16T21:56:59.881Z,21.60
2018-10-16T21:59:28.437Z,21.60
2018-10-16T22:02:02.293Z,21.60
2018-10-16T22:04:31.107Z,21.60
2018-10-16T22:06:59.831Z,21.50
2018-10-16T22:09:29.663Z,21.50
2018-10-16T22:11:58.346Z,21.50
2018-10-16T22:14:26.941Z,21.50
2018-10-16T22:16:55.631Z,21.60
2018-10-16T22:19:24.086Z,21.60
2018-10-16T22:21:52.750Z,21.50
2018-10-16T22:24:21.380Z,21.50
2018-10-16T22:26:49.944Z,21.50
2018-10-16T22:29:18.609Z,21.50
2018-10-16T22:31:47.161Z,21.50
2018-10-16T22:34:16.660Z,21.50
2018-10-16T22:36:46.811Z,21.50
2018-10-16T22:39:15.378Z,21.60
2018-10-16T22:41:44.668Z,21.50
2018-10-16T22:44:13.427Z,21.50
2018-10-16T22:46:41.975Z,21.50
2018-10-16T22:49:10.782Z,21.50
2018-10-16T22:51:39.377Z,21.50
2018-10-16T22:54:11.758Z,21.50
2018-10-16T22:56:40.729Z,21.50
2018-10-16T22:59:09.521Z,21.50
2018-10-16T23:01:38.447Z,21.50
2018-10-16T23:04:06.913Z,21.50
2018-10-16T23:06:35.549Z,21.50
2018-10-16T23:09:08.187Z,21.50
2018-10-16T23:11:36.869Z,21.50
2018-10-16T23:14:05.377Z,21.50
2018-10-16T23:16:33.944Z,21.50
2018-10-16T23:19:02.510Z,21.50
2018-10-16T23:21:31.177Z,21.50
2018-10-16T23:23:59.883Z,21.50
2018-10-16T23:26:28.359Z,21.50
2018-10-16T23:28:56.878Z,21.50
2018-10-16T23:31:25.819Z,21.50
2018-10-16T23:33:54.457Z,21.50
2018-10-16T23:36:22.985Z,21.50
2018-10-16T23:38:51.534Z,21.50
2018-10-16T23:41:20.061Z,21.50
2018-10-16T23:43:48.536Z,21.50
2018-10-16T23:46:17.013Z,21.50
2018-10-16T23:48:45.589Z,21.50
2018-10-16T23:51:14.201Z,21.50
2018-10-16T23:53:42.745Z,21.50
2018-10-16T23:56:11.285Z,21.50
2018-10-16T23:58:40.099Z,21.50
